sensor_id;sensor_type;location;lat;lon;timestamp;temperature;humidity
76759;DHT22;65701;45.588;5.186;2024-02-15T05:07:29;9.82;71.54
76759;DHT22;65701;45.588;5.186;2024-02-15T05:09:55;9.82;71.49
76759;DHT22;65701;45.588;5.186;2024-02-15T05:12:24;9.79;71.48
76759;DHT22;65701;45.588;5.186;2024-02-15T05:14:50;9.83;71.35
76759;DHT22;65701;45.588;5.186;2024-02-15T05:17:16;9.80;71.35
76759;DHT22;65701;45.588;5.186;2024-02-15T05:19:42;9.86;71.28
76759;DHT22;65701;45.588;5.186;2024-02-15T05:22:07;9.86;71.17
76759;DHT22;65701;45.588;5.186;2024-02-15T05:24:33;9.87;71.07
76759;DHT22;65701;45.588;5.186;2024-02-15T05:26:59;9.87;70.80
76759;DHT22;65701;45.588;5.186;2024-02-15T05:29:25;9.96;70.65
76759;DHT22;65701;45.588;5.186;2024-02-15T05:31:50;9.97;70.60
76759;DHT22;65701;45.588;5.186;2024-02-15T05:34:17;9.97;70.21
76759;DHT22;65701;45.588;5.186;2024-02-15T05:36:42;9.98;70.01
76759;DHT22;65701;45.588;5.186;2024-02-15T05:39:08;10.00;69.82
76759;DHT22;65701;45.588;5.186;2024-02-15T05:41:36;10.07;69.70
76759;DHT22;65701;45.588;5.186;2024-02-15T05:44:02;10.10;69.56
76759;DHT22;65701;45.588;5.186;2024-02-15T05:46:32;10.13;69.60
76759;DHT22;65701;45.588;5.186;2024-02-15T05:48:57;10.17;69.61
76759;DHT22;65701;45.588;5.186;2024-02-15T05:51:23;10.15;69.56
76759;DHT22;65701;45.588;5.186;2024-02-15T05:53:48;10.15;69.40
76759;DHT22;65701;45.588;5.186;2024-02-15T05:56:15;10.15;69.10
76759;DHT22;65701;45.588;5.186;2024-02-15T05:58:41;10.20;68.74
76759;DHT22;65701;45.588;5.186;2024-02-15T06:01:07;10.28;68.68
76759;DHT22;65701;45.588;5.186;2024-02-15T06:03:36;10.34;68.47
76759;DHT22;65701;45.588;5.186;2024-02-15T06:06:05;10.34;68.44
76759;DHT22;65701;45.588;5.186;2024-02-15T06:08:34;10.35;68.17
76759;DHT22;65701;45.588;5.186;2024-02-15T06:11:00;10.35;68.06
76759;DHT22;65701;45.588;5.186;2024-02-15T06:13:26;10.37;67.93
76759;DHT22;65701;45.588;5.186;2024-02-15T06:15:53;10.41;67.82
76759;DHT22;65701;45.588;5.186;2024-02-15T06:18:23;10.42;67.87
76759;DHT22;65701;45.588;5.186;2024-02-15T06:20:57;10.41;67.79
76759;DHT22;65701;45.588;5.186;2024-02-15T06:23:23;10.44;67.68
76759;DHT22;65701;45.588;5.186;2024-02-15T06:25:51;10.44;67.59
76759;DHT22;65701;45.588;5.186;2024-02-15T06:28:21;10.46;67.59
76759;DHT22;65701;45.588;5.186;2024-02-15T06:31:06;10.45;67.52
76759;DHT22;65701;45.588;5.186;2024-02-15T06:33:50;10.45;67.50
76759;DHT22;65701;45.588;5.186;2024-02-15T06:36:48;10.46;67.48
76759;DHT22;65701;45.588;5.186;2024-02-15T06:39:33;10.44;67.49
76759;DHT22;65701;45.588;5.186;2024-02-15T06:42:09;10.41;67.56
76759;DHT22;65701;45.588;5.186;2024-02-15T06:44:37;10.38;67.49
76759;DHT22;65701;45.588;5.186;2024-02-15T18:04:07;14.07;63.48
76759;DHT22;65701;45.588;5.186;2024-02-15T18:06:33;14.06;63.44
76759;DHT22;65701;45.588;5.186;2024-02-15T18:08:59;14.06;63.40
76759;DHT22;65701;45.588;5.186;2024-02-15T18:11:24;14.04;63.39
76759;DHT22;65701;45.588;5.186;2024-02-15T18:13:50;14.02;63.36
76759;DHT22;65701;45.588;5.186;2024-02-15T18:16:15;14.00;63.25
76759;DHT22;65701;45.588;5.186;2024-02-15T18:18:42;13.95;62.96
76759;DHT22;65701;45.588;5.186;2024-02-15T18:21:07;13.95;62.75
76759;DHT22;65701;45.588;5.186;2024-02-15T18:23:36;13.91;62.82
76759;DHT22;65701;45.588;5.186;2024-02-15T18:26:02;13.93;62.66
76759;DHT22;65701;45.588;5.186;2024-02-15T18:28:28;13.90;62.52
76759;DHT22;65701;45.588;5.186;2024-02-15T18:30:55;13.86;62.22
76759;DHT22;65701;45.588;5.186;2024-02-15T18:33:21;13.87;62.03
76759;DHT22;65701;45.588;5.186;2024-02-15T18:35:47;13.85;61.97
76759;DHT22;65701;45.588;5.186;2024-02-15T18:38:13;13.86;61.89
76759;DHT22;65701;45.588;5.186;2024-02-15T18:40:40;13.85;61.94
76759;DHT22;65701;45.588;5.186;2024-02-15T18:43:06;13.85;61.88
76759;DHT22;65701;45.588;5.186;2024-02-15T18:45:33;13.82;61.81
76759;DHT22;65701;45.588;5.186;2024-02-15T18:47:59;13.83;61.77
76759;DHT22;65701;45.588;5.186;2024-02-15T18:50:29;13.82;61.73
76759;DHT22;65701;45.588;5.186;2024-02-15T18:52:56;13.83;61.78
76759;DHT22;65701;45.588;5.186;2024-02-15T18:55:23;13.78;61.81
76759;DHT22;65701;45.588;5.186;2024-02-15T18:57:51;13.80;61.71
76759;DHT22;65701;45.588;5.186;2024-02-15T19:00:18;13.78;61.70
76759;DHT22;65701;45.588;5.186;2024-02-15T19:02:47;13.82;61.65
76759;DHT22;65701;45.588;5.186;2024-02-15T19:05:13;13.82;61.64
76759;DHT22;65701;45.588;5.186;2024-02-15T19:07:43;13.83;61.68
76759;DHT22;65701;45.588;5.186;2024-02-15T19:10:09;13.82;61.56
76759;DHT22;65701;45.588;5.186;2024-02-15T19:12:35;13.82;61.50
76759;DHT22;65701;45.588;5.186;2024-02-15T19:15:02;13.85;61.51
76759;DHT22;65701;45.588;5.186;2024-02-15T19:17:35;13.82;61.58
76759;DHT22;65701;45.588;5.186;2024-02-15T19:20:02;13.79;61.54
76759;DHT22;65701;45.588;5.186;2024-02-15T19:22:28;13.82;61.59
76759;DHT22;65701;45.588;5.186;2024-02-15T19:24:53;13.83;61.62
76759;DHT22;65701;45.588;5.186;2024-02-15T19:27:19;13.85;61.71
76759;DHT22;65701;45.588;5.186;2024-02-15T19:29:48;13.82;61.65
76759;DHT22;65701;45.588;5.186;2024-02-15T19:32:13;13.82;61.66
76759;DHT22;65701;45.588;5.186;2024-02-15T19:34:40;13.82;61.61
76759;DHT22;65701;45.588;5.186;2024-02-15T19:37:05;13.78;61.63
76759;DHT22;65701;45.588;5.186;2024-02-15T19:39:33;13.78;61.54
76759;DHT22;65701;45.588;5.186;2024-02-15T19:41:58;13.76;61.54
76759;DHT22;65701;45.588;5.186;2024-02-15T19:44:24;13.75;61.46
76759;DHT22;65701;45.588;5.186;2024-02-15T19:46:49;13.70;61.42
76759;DHT22;65701;45.588;5.186;2024-02-15T19:49:15;13.76;61.37
76759;DHT22;65701;45.588;5.186;2024-02-15T19:51:41;13.73;61.31
76759;DHT22;65701;45.588;5.186;2024-02-15T19:54:07;13.75;61.43
76759;DHT22;65701;45.588;5.186;2024-02-15T19:56:32;13.73;61.49
76759;DHT22;65701;45.588;5.186;2024-02-15T19:58:58;13.66;61.37
76759;DHT22;65701;45.588;5.186;2024-02-15T20:01:24;13.65;61.39
76759;DHT22;65701;45.588;5.186;2024-02-15T20:03:55;13.66;61.31
76759;DHT22;65701;45.588;5.186;2024-02-15T20:06:22;13.61;61.33
76759;DHT22;65701;45.588;5.186;2024-02-15T20:08:49;13.63;61.44
76759;DHT22;65701;45.588;5.186;2024-02-15T20:11:16;13.63;61.42
76759;DHT22;65701;45.588;5.186;2024-02-15T20:13:41;13.61;61.46
76759;DHT22;65701;45.588;5.186;2024-02-15T20:16:07;13.59;61.47
76759;DHT22;65701;45.588;5.186;2024-02-15T20:18:33;13.57;61.51
76759;DHT22;65701;45.588;5.186;2024-02-15T20:21:00;13.59;61.58
76759;DHT22;65701;45.588;5.186;2024-02-15T20:23:26;13.62;61.61
76759;DHT22;65701;45.588;5.186;2024-02-15T20:25:51;13.58;61.70
76759;DHT22;65701;45.588;5.186;2024-02-15T20:28:17;13.48;61.74
76759;DHT22;65701;45.588;5.186;2024-02-15T20:30:43;13.55;61.75
76759;DHT22;65701;45.588;5.186;2024-02-15T20:33:10;13.52;61.80
76759;DHT22;65701;45.588;5.186;2024-02-15T20:35:43;13.47;61.88
76759;DHT22;65701;45.588;5.186;2024-02-15T20:38:09;13.54;61.94
76759;DHT22;65701;45.588;5.186;2024-02-15T20:40:35;13.51;61.99
76759;DHT22;65701;45.588;5.186;2024-02-15T20:43:01;13.48;62.06
76759;DHT22;65701;45.588;5.186;2024-02-15T20:45:28;13.47;62.17
76759;DHT22;65701;45.588;5.186;2024-02-15T20:47:53;13.47;62.22
76759;DHT22;65701;45.588;5.186;2024-02-15T20:50:19;13.47;62.30
76759;DHT22;65701;45.588;5.186;2024-02-15T20:52:44;13.40;62.33
76759;DHT22;65701;45.588;5.186;2024-02-15T20:55:10;13.45;62.46
76759;DHT22;65701;45.588;5.186;2024-02-15T20:57:39;13.44;62.50
76759;DHT22;65701;45.588;5.186;2024-02-15T21:00:06;13.42;62.56
76759;DHT22;65701;45.588;5.186;2024-02-15T21:02:42;13.42;62.54
76759;DHT22;65701;45.588;5.186;2024-02-15T21:05:09;13.41;62.55
76759;DHT22;65701;45.588;5.186;2024-02-15T21:07:36;13.41;62.53
76759;DHT22;65701;45.588;5.186;2024-02-15T21:10:02;13.35;62.56
76759;DHT22;65701;45.588;5.186;2024-02-15T21:12:34;13.37;62.52
76759;DHT22;65701;45.588;5.186;2024-02-15T21:14:59;13.40;62.55
76759;DHT22;65701;45.588;5.186;2024-02-15T21:17:26;13.37;62.54
76759;DHT22;65701;45.588;5.186;2024-02-15T21:19:51;13.38;62.48
76759;DHT22;65701;45.588;5.186;2024-02-15T21:22:17;13.40;62.46
76759;DHT22;65701;45.588;5.186;2024-02-15T21:24:42;13.40;62.46
76759;DHT22;65701;45.588;5.186;2024-02-15T21:27:08;13.38;62.42
76759;DHT22;65701;45.588;5.186;2024-02-15T21:29:33;13.40;62.50
76759;DHT22;65701;45.588;5.186;2024-02-15T21:32:01;13.35;62.49
76759;DHT22;65701;45.588;5.186;2024-02-15T21:34:28;13.37;62.45
76759;DHT22;65701;45.588;5.186;2024-02-15T21:36:53;13.35;62.45
76759;DHT22;65701;45.588;5.186;2024-02-15T21:39:19;13.38;62.45
76759;DHT22;65701;45.588;5.186;2024-02-15T21:41:51;13.32;62.41
76759;DHT22;65701;45.588;5.186;2024-02-15T21:44:16;13.37;62.46
76759;DHT22;65701;45.588;5.186;2024-02-15T21:46:42;13.34;62.54
76759;DHT22;65701;45.588;5.186;2024-02-15T21:49:07;13.37;62.53
76759;DHT22;65701;45.588;5.186;2024-02-15T21:51:33;13.37;62.56
76759;DHT22;65701;45.588;5.186;2024-02-15T21:53:58;13.40;62.51
76759;DHT22;65701;45.588;5.186;2024-02-15T21:56:24;13.37;62.59
76759;DHT22;65701;45.588;5.186;2024-02-15T21:58:50;13.38;62.53
76759;DHT22;65701;45.588;5.186;2024-02-15T22:01:15;13.38;62.48
76759;DHT22;65701;45.588;5.186;2024-02-15T22:03:43;13.42;62.47
76759;DHT22;65701;45.588;5.186;2024-02-15T22:06:08;13.38;62.46
76759;DHT22;65701;45.588;5.186;2024-02-15T22:08:36;13.41;62.43
76759;DHT22;65701;45.588;5.186;2024-02-15T22:11:01;13.41;62.40
76759;DHT22;65701;45.588;5.186;2024-02-15T22:13:27;13.35;62.32
76759;DHT22;65701;45.588;5.186;2024-02-15T22:15:55;13.40;62.29
76759;DHT22;65701;45.588;5.186;2024-02-15T22:18:21;13.44;62.24
76759;DHT22;65701;45.588;5.186;2024-02-15T22:20:49;13.40;62.15
76759;DHT22;65701;45.588;5.186;2024-02-15T22:23:18;13.41;62.08
76759;DHT22;65701;45.588;5.186;2024-02-15T22:25:45;13.45;62.15
76759;DHT22;65701;45.588;5.186;2024-02-15T22:28:12;13.47;62.21
76759;DHT22;65701;45.588;5.186;2024-02-15T22:30:41;13.44;62.14
76759;DHT22;65701;45.588;5.186;2024-02-15T22:33:07;13.41;62.16
76759;DHT22;65701;45.588;5.186;2024-02-15T22:35:32;13.42;62.29
76759;DHT22;65701;45.588;5.186;2024-02-15T22:37:59;13.42;62.31
76759;DHT22;65701;45.588;5.186;2024-02-15T22:40:25;13.41;62.41
76759;DHT22;65701;45.588;5.186;2024-02-15T22:42:50;13.37;62.43
76759;DHT22;65701;45.588;5.186;2024-02-15T22:45:15;13.40;62.51
76759;DHT22;65701;45.588;5.186;2024-02-15T22:47:41;13.41;62.52
76759;DHT22;65701;45.588;5.186;2024-02-15T22:50:08;13.42;62.56
76759;DHT22;65701;45.588;5.186;2024-02-15T22:52:34;13.35;62.54
